Time;durP1;ratioP1;P1;durP2;ratioP2;P2;SDS_P1;SDS_P2;PMS_P1;PMS_P2;Temp;Humidity;BMP_temperature;BMP_pressure;BME280_temperature;BME280_humidity;BME280_pressure;Samples;Min_cycle;Max_cycle;Signal;HPM_P1;HPM_P2
2022/10/04 00:02:15;;;;;;;8.70;7.90;;;11.00;94.80;;;;;;5065689;28;20434;-68
2022/10/04 00:04:46;;;;;;;11.60;8.30;;;11.00;94.90;;;;;;5068165;28;20415;-67
2022/10/04 00:07:20;;;;;;;9.00;8.10;;;11.00;94.60;;;;;;5067667;28;20877;-68
2022/10/04 00:09:50;;;;;;;9.20;8.17;;;11.00;94.40;;;;;;5067531;28;20423;-67
2022/10/04 00:12:22;;;;;;;8.60;7.80;;;10.90;94.20;;;;;;5061287;28;20433;-67
2022/10/04 00:14:51;;;;;;;8.80;8.00;;;10.90;94.30;;;;;;5063806;28;20423;-67
2022/10/04 00:17:23;;;;;;;8.90;8.00;;;10.90;94.50;;;;;;5067249;28;20446;-67
2022/10/04 00:19:51;;;;;;;9.67;8.33;;;10.90;94.50;;;;;;5055661;28;20433;-67
2022/10/04 00:22:20;;;;;;;8.45;7.55;;;10.90;94.40;;;;;;5054570;28;20790;-67
2022/10/04 00:25:20;;;;;;;8.80;7.60;;;10.80;94.30;;;;;;5047498;28;20433;-67
2022/10/04 00:28:16;;;;;;;8.65;7.85;;;10.80;94.60;;;;;;5066836;28;20427;-66
2022/10/04 00:30:45;;;;;;;8.13;7.32;;;10.70;94.20;;;;;;5063639;28;20519;-66
2022/10/04 00:33:32;;;;;;;8.45;7.65;;;10.70;94.30;;;;;;5066944;28;20415;-66
2022/10/04 00:35:58;;;;;;;8.63;7.50;;;10.70;94.40;;;;;;5066517;28;20537;-67
2022/10/04 00:38:27;;;;;;;8.75;7.85;;;10.70;94.40;;;;;;5067043;28;20990;-69
2022/10/04 00:41:00;;;;;;;8.68;7.82;;;10.70;94.20;;;;;;5066951;28;20424;-69
2022/10/04 00:43:30;;;;;;;8.80;7.90;;;10.60;94.20;;;;;;5058261;28;20415;-69
2022/10/04 00:46:02;;;;;;;8.10;7.40;;;10.60;94.40;;;;;;5066271;28;20431;-67
2022/10/04 00:48:37;;;;;;;9.20;7.63;;;10.60;94.50;;;;;;5067193;28;20453;-67
2022/10/04 00:51:13;;;;;;;8.65;7.70;;;10.60;94.40;;;;;;5066850;28;20416;-68
2022/10/04 00:54:01;;;;;;;9.00;8.10;;;10.60;94.30;;;;;;5064634;28;20447;-68
2022/10/04 00:56:34;;;;;;;9.82;8.40;;;10.60;94.40;;;;;;5055745;28;20429;-69
2022/10/04 00:59:12;;;;;;;9.70;7.90;;;10.60;94.60;;;;;;5064242;28;20427;-69
2022/10/04 01:01:45;;;;;;;9.77;8.00;;;10.60;94.60;;;;;;5067475;28;20502;-69
2022/10/04 01:04:24;;;;;;;8.60;7.80;;;10.50;94.40;;;;;;5066909;28;20423;-69
2022/10/04 01:06:51;;;;;;;9.82;8.15;;;10.50;94.50;;;;;;5066444;28;20419;-66
2022/10/04 01:09:19;;;;;;;8.67;7.47;;;10.50;94.30;;;;;;5065488;28;20427;-68
2022/10/04 01:11:56;;;;;;;8.80;7.90;;;10.50;94.20;;;;;;5057619;28;20437;-69
2022/10/04 01:14:30;;;;;;;9.32;7.78;;;10.40;94.40;;;;;;5062088;28;20941;-66
2022/10/04 01:16:58;;;;;;;9.50;8.32;;;10.40;94.50;;;;;;5064645;28;20438;-66
2022/10/04 01:19:30;;;;;;;8.90;8.10;;;10.40;94.40;;;;;;5066667;28;20407;-67
2022/10/04 01:22:03;;;;;;;8.90;8.00;;;10.40;94.70;;;;;;5066039;28;20784;-65
2022/10/04 01:24:35;;;;;;;10.05;8.27;;;10.40;94.80;;;;;;5065226;28;20809;-67
2022/10/04 01:27:03;;;;;;;9.93;8.30;;;10.40;94.80;;;;;;5060366;28;20437;-69
2022/10/04 01:29:31;;;;;;;8.85;7.75;;;10.40;94.70;;;;;;5053468;28;20455;-69
2022/10/04 01:32:00;;;;;;;8.80;7.90;;;10.40;94.70;;;;;;5050699;28;20437;-69
2022/10/04 01:34:29;;;;;;;8.27;7.43;;;10.50;94.60;;;;;;5064426;28;20419;-67
2022/10/04 01:36:58;;;;;;;8.95;8.15;;;10.50;94.60;;;;;;5065922;28;20441;-66
2022/10/04 01:39:26;;;;;;;8.40;7.60;;;10.50;94.60;;;;;;5065737;28;20593;-68
2022/10/04 01:42:00;;;;;;;8.38;7.30;;;10.50;94.70;;;;;;5063340;28;20440;-68
2022/10/04 01:44:31;;;;;;;8.85;7.95;;;10.40;94.70;;;;;;5058445;28;20433;-68
2022/10/04 01:47:04;;;;;;;9.68;7.90;;;10.40;94.60;;;;;;5054690;28;20433;-68
2022/10/04 01:49:34;;;;;;;8.07;7.28;;;10.40;94.70;;;;;;5060547;28;20450;-67
2022/10/04 01:52:07;;;;;;;8.68;7.22;;;10.50;94.70;;;;;;5066046;28;20790;-66
2022/10/04 01:54:36;;;;;;;9.70;7.30;;;10.50;94.60;;;;;;5065729;28;20518;-67
2022/10/04 01:57:12;;;;;;;8.23;7.47;;;10.40;94.50;;;;;;5054510;28;20431;-67
2022/10/04 01:59:44;;;;;;;8.10;7.30;;;10.40;94.50;;;;;;5052769;28;20488;-69
2022/10/04 02:02:21;;;;;;;8.73;7.60;;;10.40;94.50;;;;;;5065088;28;20430;-69
2022/10/04 02:04:52;;;;;;;8.97;8.03;;;10.40;94.40;;;;;;5065724;28;20407;-67
2022/10/04 02:07:20;;;;;;;8.27;7.40;;;10.30;94.40;;;;;;5065663;28;20422;-66
2022/10/04 02:09:50;;;;;;;10.83;8.10;;;10.30;94.40;;;;;;5063576;28;20428;-69
2022/10/04 02:12:19;;;;;;;8.70;7.80;;;10.30;94.60;;;;;;5058358;28;20425;-67
2022/10/04 02:14:51;;;;;;;8.55;7.75;;;10.30;94.80;;;;;;5061390;28;20415;-67
2022/10/04 02:17:20;;;;;;;8.65;7.10;;;10.20;94.50;;;;;;5065551;28;20424;-69
2022/10/04 02:19:48;;;;;;;10.30;7.90;;;10.20;94.40;;;;;;5065116;28;20434;-69
2022/10/04 02:22:16;;;;;;;8.77;7.30;;;10.20;94.40;;;;;;5064148;28;20427;-69
2022/10/04 02:24:45;;;;;;;9.20;8.10;;;10.20;94.30;;;;;;5061731;28;20427;-69
2022/10/04 02:27:12;;;;;;;8.02;7.32;;;10.10;94.40;;;;;;5052098;28;20437;-68
2022/10/04 02:29:40;;;;;;;9.25;7.43;;;10.10;94.60;;;;;;5060530;28;21060;-68
2022/10/04 02:34:54;;;;;;;8.48;7.57;;;10.10;94.80;;;;;;5063652;28;20427;-72
2022/10/04 02:37:23;;;;;;;8.30;7.60;;;10.10;94.60;;;;;;5057696;28;20424;-69
2022/10/04 02:39:55;;;;;;;8.70;7.80;;;10.00;94.50;;;;;;5061437;28;20435;-69
2022/10/04 02:42:34;;;;;;;8.73;7.60;;;10.00;94.60;;;;;;5057114;28;20487;-68
2022/10/04 02:45:09;;;;;;;8.75;7.85;;;9.90;94.70;;;;;;5064846;28;20411;-69
2022/10/04 02:47:44;;;;;;;9.35;8.02;;;9.90;94.90;;;;;;5049807;28;20526;-69
2022/10/04 02:50:24;;;;;;;8.45;7.65;;;9.90;95.00;;;;;;5055901;28;20428;-67
2022/10/04 02:52:57;;;;;;;9.35;8.00;;;9.90;95.00;;;;;;5061612;28;20434;-69
2022/10/04 02:55:27;;;;;;;9.68;8.48;;;9.90;95.00;;;;;;5051997;28;20448;-69
2022/10/04 02:57:55;;;;;;;11.32;8.60;;;9.90;95.00;;;;;;5053143;28;20984;-69
2022/10/04 03:00:25;;;;;;;8.20;7.50;;;9.90;95.00;;;;;;5049916;28;20443;-69
2022/10/04 03:03:16;;;;;;;9.45;7.80;;;9.90;95.00;;;;;;5063498;28;20427;-68
2022/10/04 03:05:45;;;;;;;8.60;7.80;;;9.90;95.00;;;;;;5063733;28;20625;-69
2022/10/04 03:08:13;;;;;;;9.95;8.10;;;9.90;94.90;;;;;;5056828;28;20432;-69
2022/10/04 03:10:43;;;;;;;8.82;7.28;;;9.90;95.00;;;;;;5058937;28;20434;-69
2022/10/04 03:13:11;;;;;;;9.30;7.50;;;9.90;95.00;;;;;;5058789;28;20433;-69
2022/10/04 03:15:40;;;;;;;8.30;7.53;;;9.90;95.00;;;;;;5060320;28;20418;-67
2022/10/04 03:18:07;;;;;;;8.18;7.03;;;9.90;95.00;;;;;;5064254;28;20423;-66
2022/10/04 03:20:37;;;;;;;8.07;7.00;;;9.90;94.80;;;;;;5064687;28;20889;-68
2022/10/04 03:23:05;;;;;;;7.95;7.07;;;9.90;94.60;;;;;;5060764;28;20442;-67
2022/10/04 03:25:50;;;;;;;7.75;6.80;;;9.90;94.50;;;;;;5057422;28;20431;-69
2022/10/04 03:28:18;;;;;;;8.75;7.60;;;9.90;94.50;;;;;;5056872;28;20439;-67
2022/10/04 03:30:46;;;;;;;10.93;8.10;;;9.80;94.40;;;;;;5061183;28;20952;-69
2022/10/04 03:33:19;;;;;;;12.02;7.72;;;9.80;94.50;;;;;;5060348;28;20428;-67
2022/10/04 03:35:49;;;;;;;8.30;7.50;;;9.80;94.70;;;;;;5063811;28;20519;-67
2022/10/04 03:38:17;;;;;;;8.13;7.32;;;9.80;94.80;;;;;;5064505;28;20431;-67
2022/10/04 03:40:52;;;;;;;8.45;7.65;;;9.80;94.80;;;;;;5063232;28;20566;-67
2022/10/04 03:43:22;;;;;;;10.80;8.20;;;9.80;94.90;;;;;;5063447;28;20503;-67
2022/10/04 03:45:51;;;;;;;8.30;7.60;;;9.80;95.10;;;;;;5064841;28;20419;-67
2022/10/04 03:48:27;;;;;;;8.90;7.55;;;9.80;95.10;;;;;;5064882;28;20434;-67
2022/10/04 03:50:55;;;;;;;9.80;7.90;;;9.70;95.10;;;;;;5063454;28;20878;-68
2022/10/04 03:53:29;;;;;;;8.40;7.60;;;9.70;95.00;;;;;;5055779;28;20853;-67
2022/10/04 03:55:58;;;;;;;8.30;7.45;;;9.70;95.20;;;;;;5062425;28;20427;-67
2022/10/04 03:58:28;;;;;;;8.20;7.40;;;9.60;95.10;;;;;;5052476;28;20416;-67
2022/10/04 04:01:05;;;;;;;8.13;6.82;;;9.60;95.10;;;;;;5062949;28;20786;-69
2022/10/04 04:03:46;;;;;;;8.52;7.75;;;9.60;95.00;;;;;;5052107;28;20433;-67
2022/10/04 04:06:16;;;;;;;9.30;7.70;;;9.60;95.00;;;;;;5056987;28;20537;-68
2022/10/04 04:08:46;;;;;;;8.88;8.07;;;9.50;95.10;;;;;;5060655;28;20439;-67
2022/10/04 04:11:19;;;;;;;8.93;7.88;;;9.50;95.00;;;;;;5062248;28;20785;-67
2022/10/04 04:13:54;;;;;;;9.17;8.37;;;9.40;95.00;;;;;;5056481;28;20510;-68
2022/10/04 04:16:24;;;;;;;9.30;8.40;;;9.40;95.00;;;;;;5058761;28;20460;-68
2022/10/04 04:18:53;;;;;;;8.65;7.85;;;9.30;95.00;;;;;;5063855;28;20452;-67
2022/10/04 04:21:23;;;;;;;8.50;7.70;;;9.30;95.40;;;;;;5061700;28;20446;-68
2022/10/04 04:23:54;;;;;;;8.60;7.80;;;9.30;95.10;;;;;;5054511;28;20459;-67
2022/10/04 04:26:28;;;;;;;9.07;8.05;;;9.20;95.20;;;;;;5062724;28;20440;-68
2022/10/04 04:28:58;;;;;;;8.17;7.37;;;9.30;95.30;;;;;;5061862;28;20962;-68
2022/10/04 04:31:29;;;;;;;8.70;7.90;;;9.20;95.10;;;;;;5062573;28;20442;-68
2022/10/04 04:33:59;;;;;;;9.77;8.20;;;9.20;95.20;;;;;;5064290;28;20427;-68
2022/10/04 04:36:27;;;;;;;8.75;7.85;;;9.20;95.30;;;;;;5070272;28;20477;-68
2022/10/04 04:41:50;;;;;;;8.98;8.15;;;9.20;95.20;;;;;;5067247;28;20465;-68
2022/10/04 04:44:18;;;;;;;8.38;7.57;;;9.10;95.20;;;;;;5072586;28;20447;-67
2022/10/04 04:46:46;;;;;;;10.60;8.80;;;9.10;95.30;;;;;;5071549;28;20507;-67
2022/10/04 04:49:16;;;;;;;9.93;9.02;;;9.10;95.40;;;;;;5069286;28;20429;-67
2022/10/04 04:51:50;;;;;;;11.80;9.70;;;9.00;95.50;;;;;;5065542;28;20440;-67
2022/10/04 04:54:19;;;;;;;10.95;9.85;;;9.00;95.40;;;;;;5056120;28;20421;-68
2022/10/04 04:56:49;;;;;;;9.90;8.90;;;9.00;95.50;;;;;;5059351;28;20446;-67
2022/10/04 04:59:16;;;;;;;11.60;8.93;;;9.00;95.60;;;;;;5053648;28;20425;-67
2022/10/04 05:01:47;;;;;;;10.55;9.45;;;9.00;95.60;;;;;;5059521;28;20466;-67
2022/10/04 05:04:18;;;;;;;10.73;9.73;;;8.90;95.70;;;;;;5058463;28;20436;-69
2022/10/04 05:06:47;;;;;;;10.00;9.00;;;9.00;95.70;;;;;;5064942;28;20423;-68
2022/10/04 05:09:23;;;;;;;9.70;8.80;;;9.00;95.60;;;;;;5065910;28;20442;-67
2022/10/04 05:11:53;;;;;;;9.40;8.60;;;9.00;95.50;;;;;;5064331;28;20443;-67
2022/10/04 05:14:21;;;;;;;9.10;8.30;;;9.00;95.40;;;;;;5060325;28;21009;-67
2022/10/04 05:16:52;;;;;;;9.27;8.18;;;9.00;95.60;;;;;;5060389;28;20938;-67
2022/10/04 05:19:23;;;;;;;9.52;8.63;;;8.90;95.30;;;;;;5074374;28;21174;-65
2022/10/04 05:21:54;;;;;;;9.35;8.35;;;8.90;95.40;;;;;;5065061;28;20530;-67
2022/10/04 05:24:23;;;;;;;8.40;7.60;;;8.90;95.50;;;;;;5054301;28;20428;-66
2022/10/04 05:26:52;;;;;;;9.40;8.50;;;9.00;95.30;;;;;;5060602;28;20451;-67
2022/10/04 05:29:21;;;;;;;9.10;8.20;;;9.00;95.30;;;;;;5057945;28;20455;-67
2022/10/04 05:31:57;;;;;;;9.50;8.70;;;8.90;95.30;;;;;;5064426;28;20441;-67
2022/10/04 05:34:26;;;;;;;9.45;8.55;;;8.90;95.30;;;;;;5054565;28;20875;-67
2022/10/04 05:37:25;;;;;;;9.43;8.40;;;8.90;95.20;;;;;;5064194;28;20867;-67
2022/10/04 05:40:06;;;;;;;9.80;8.90;;;8.90;95.20;;;;;;5034795;28;20409;-67
2022/10/04 05:42:38;;;;;;;9.43;8.60;;;8.90;95.40;;;;;;5061915;28;21062;-67
2022/10/04 05:45:16;;;;;;;9.55;8.65;;;8.80;95.40;;;;;;5058056;28;20904;-67
2022/10/04 05:47:45;;;;;;;10.10;9.20;;;8.80;95.50;;;;;;5065727;28;20424;-66
2022/10/04 05:50:17;;;;;;;9.90;8.80;;;8.80;95.60;;;;;;5056829;28;20431;-67
2022/10/04 05:52:46;;;;;;;10.75;8.90;;;8.90;95.70;;;;;;5062064;28;20432;-67
2022/10/04 05:55:27;;;;;;;9.43;8.48;;;8.90;95.60;;;;;;5060079;28;20945;-67
2022/10/04 05:58:24;;;;;;;10.07;9.20;;;8.90;95.50;;;;;;5051645;28;20928;-67
2022/10/04 06:01:19;;;;;;;9.80;8.90;;;8.90;95.50;;;;;;5058281;28;20448;-67
2022/10/04 06:04:02;;;;;;;10.20;9.40;;;8.90;95.60;;;;;;5057394;28;20628;-66
2022/10/04 06:06:36;;;;;;;9.23;8.43;;;8.90;95.70;;;;;;5059061;28;20435;-67
2022/10/04 06:09:12;;;;;;;10.27;9.23;;;8.90;95.70;;;;;;5062300;28;20534;-67
2022/10/04 06:11:51;;;;;;;9.52;8.70;;;9.00;95.70;;;;;;5065927;28;20431;-68
2022/10/04 06:14:38;;;;;;;10.18;9.18;;;9.00;95.60;;;;;;5058984;28;20427;-66
2022/10/04 06:17:29;;;;;;;9.60;8.80;;;9.00;95.40;;;;;;5061398;28;20428;-67
2022/10/04 06:20:09;;;;;;;9.25;8.45;;;9.00;95.70;;;;;;5061222;28;20411;-69
2022/10/04 06:22:44;;;;;;;9.35;8.30;;;9.10;95.20;;;;;;5063192;28;20522;-68
2022/10/04 06:25:15;;;;;;;9.88;8.50;;;9.10;94.90;;;;;;5059688;28;20588;-67
2022/10/04 06:27:49;;;;;;;9.32;8.32;;;9.10;94.80;;;;;;5055225;28;20442;-67
2022/10/04 06:30:17;;;;;;;9.35;8.40;;;9.10;94.90;;;;;;5056670;28;20435;-67
2022/10/04 06:33:15;;;;;;;9.70;8.70;;;9.10;94.90;;;;;;5058147;28;20465;-66
2022/10/04 06:36:00;;;;;;;10.90;8.85;;;9.10;94.90;;;;;;5061607;28;20430;-67
2022/10/04 06:38:55;;;;;;;9.77;8.70;;;9.10;94.70;;;;;;5068888;28;20416;-67
2022/10/04 06:41:49;;;;;;;12.30;8.10;;;9.20;94.60;;;;;;5063293;28;20429;-67
2022/10/04 06:44:43;;;;;;;9.73;8.80;;;9.20;94.50;;;;;;5061575;28;20419;-67
2022/10/04 06:47:27;;;;;;;10.02;8.98;;;9.30;94.70;;;;;;5066748;28;20415;-67
2022/10/04 06:49:59;;;;;;;9.05;8.15;;;9.20;94.50;;;;;;5064687;28;20958;-67
2022/10/04 06:52:37;;;;;;;10.50;9.15;;;9.30;94.60;;;;;;5052426;28;20467;-67
2022/10/04 06:55:27;;;;;;;9.48;8.52;;;9.30;94.50;;;;;;5078226;28;20416;-68
2022/10/04 06:58:26;;;;;;;9.25;8.35;;;9.40;94.40;;;;;;5053134;28;20461;-67
2022/10/04 07:00:58;;;;;;;10.75;8.70;;;9.50;94.40;;;;;;5023679;28;20427;-67
2022/10/04 07:03:32;;;;;;;9.60;8.80;;;9.50;94.20;;;;;;5055840;28;20515;-67
2022/10/04 07:06:03;;;;;;;9.57;8.63;;;9.50;94.10;;;;;;5061361;28;20431;-68
2022/10/04 07:08:40;;;;;;;9.80;8.80;;;9.50;94.00;;;;;;5063959;28;20438;-67
2022/10/04 07:11:13;;;;;;;10.10;9.10;;;9.50;94.00;;;;;;5062492;28;20490;-68
2022/10/04 07:13:48;;;;;;;9.43;8.60;;;9.60;94.20;;;;;;5055725;28;20429;-67
2022/10/04 07:16:29;;;;;;;11.18;10.10;;;9.60;94.00;;;;;;5065273;28;20431;-67
2022/10/04 07:19:08;;;;;;;10.50;9.40;;;9.70;93.90;;;;;;5065116;28;20428;-67
2022/10/04 07:21:42;;;;;;;9.80;8.77;;;9.80;93.90;;;;;;5063986;28;20919;-67
2022/10/04 07:24:18;;;;;;;9.57;8.68;;;9.90;93.80;;;;;;5055875;28;20440;-67
2022/10/04 07:26:47;;;;;;;9.70;8.70;;;10.00;93.50;;;;;;5052395;28;20436;-67
2022/10/04 07:29:20;;;;;;;8.95;8.25;;;10.10;93.30;;;;;;5058921;28;20419;-67
2022/10/04 07:31:50;;;;;;;9.95;8.40;;;10.20;93.10;;;;;;5065191;28;20524;-67
2022/10/04 07:34:24;;;;;;;9.50;8.50;;;10.20;92.90;;;;;;5055765;28;20436;-67
2022/10/04 07:36:54;;;;;;;9.52;8.52;;;10.20;92.80;;;;;;5060417;28;20422;-67
2022/10/04 07:39:27;;;;;;;8.90;8.00;;;10.30;92.70;;;;;;5063555;28;20785;-68
2022/10/04 07:41:57;;;;;;;9.80;8.90;;;10.30;92.60;;;;;;5051823;28;20428;-68
2022/10/04 07:44:35;;;;;;;8.85;8.15;;;10.40;92.40;;;;;;5057805;28;20419;-68
2022/10/04 07:47:13;;;;;;;9.20;8.40;;;10.40;92.30;;;;;;5064271;28;20415;-68
2022/10/04 07:49:40;;;;;;;8.52;7.82;;;10.40;92.30;;;;;;5065743;28;20419;-67
2022/10/04 07:52:36;;;;;;;9.00;8.10;;;10.50;92.10;;;;;;5060377;28;20441;-68
2022/10/04 07:55:17;;;;;;;9.82;8.65;;;10.50;91.90;;;;;;5063279;28;20415;-68
2022/10/04 07:57:52;;;;;;;9.32;8.43;;;10.60;92.00;;;;;;5055372;28;20509;-68
2022/10/04 08:00:21;;;;;;;8.90;8.10;;;10.70;91.50;;;;;;5055672;28;20416;-68
2022/10/04 08:03:08;;;;;;;9.20;8.30;;;10.80;91.00;;;;;;5055141;28;20436;-67
2022/10/04 08:05:41;;;;;;;9.47;8.57;;;10.80;91.10;;;;;;5064967;28;20418;-67
2022/10/04 08:08:29;;;;;;;9.30;8.40;;;10.70;91.10;;;;;;5064769;28;20415;-67
2022/10/04 08:11:11;;;;;;;9.00;8.30;;;10.80;91.20;;;;;;5064722;28;20424;-68
2022/10/04 08:13:44;;;;;;;8.88;8.15;;;10.90;91.20;;;;;;5062719;28;20416;-69
2022/10/04 08:16:25;;;;;;;8.43;7.72;;;10.90;91.20;;;;;;5067063;28;20407;-67
2022/10/04 08:19:05;;;;;;;9.45;8.65;;;10.90;90.90;;;;;;5065454;28;20418;-67
2022/10/04 08:21:48;;;;;;;9.15;8.25;;;11.00;90.90;;;;;;5064867;28;20483;-67
2022/10/04 08:24:24;;;;;;;9.30;8.43;;;11.00;90.90;;;;;;5058108;28;20506;-68
2022/10/04 08:27:05;;;;;;;8.55;7.85;;;11.00;90.70;;;;;;5067032;28;20467;-67
2022/10/04 08:30:00;;;;;;;10.02;9.00;;;11.00;90.70;;;;;;5062949;28;20961;-67
2022/10/04 08:32:40;;;;;;;8.65;7.93;;;11.10;90.60;;;;;;5060768;28;20534;-67
2022/10/04 08:35:24;;;;;;;8.60;7.80;;;11.30;90.50;;;;;;5067295;28;20434;-67
2022/10/04 08:38:04;;;;;;;8.55;7.75;;;11.40;90.00;;;;;;5064674;28;20458;-67
2022/10/04 08:40:55;;;;;;;8.50;7.70;;;11.60;88.90;;;;;;5065480;28;20450;-68
2022/10/04 08:43:55;;;;;;;8.38;7.68;;;11.80;88.50;;;;;;5064178;28;20446;-68
2022/10/04 08:46:59;;;;;;;7.65;6.90;;;12.00;87.00;;;;;;5048086;28;20452;-68
2022/10/04 08:50:01;;;;;;;7.43;6.72;;;12.30;85.50;;;;;;5047488;28;20433;-68
2022/10/04 08:53:15;;;;;;;7.78;6.60;;;12.60;84.40;;;;;;5057282;28;20450;-68
2022/10/04 08:55:57;;;;;;;7.30;6.60;;;12.80;82.20;;;;;;5053705;28;20433;-68
2022/10/04 08:59:13;;;;;;;9.35;7.10;;;13.10;81.20;;;;;;5060211;28;20419;-68
2022/10/04 09:02:08;;;;;;;6.85;6.25;;;13.30;80.60;;;;;;5058521;28;20425;-68
2022/10/04 09:05:08;;;;;;;6.70;6.10;;;13.60;80.00;;;;;;5066844;28;20423;-68
2022/10/04 09:08:11;;;;;;;6.50;5.90;;;14.00;78.40;;;;;;5066421;28;20451;-68
2022/10/04 09:10:51;;;;;;;6.80;6.10;;;14.30;76.00;;;;;;5063645;28;20434;-68
2022/10/04 09:13:35;;;;;;;6.90;6.30;;;14.40;75.20;;;;;;5057311;28;20766;-68
2022/10/04 09:16:17;;;;;;;8.23;7.33;;;14.40;75.50;;;;;;5065166;28;20412;-68
2022/10/04 09:18:58;;;;;;;10.30;7.30;;;14.60;75.00;;;;;;5065626;28;20798;-69
2022/10/04 09:21:43;;;;;;;6.60;5.90;;;14.90;74.30;;;;;;5060953;28;20872;-68
2022/10/04 09:24:52;;;;;;;8.00;6.00;;;15.40;72.70;;;;;;5066548;28;20495;-69
2022/10/04 09:27:39;;;;;;;6.70;4.90;;;15.90;70.40;;;;;;5040267;28;20427;-69
2022/10/04 09:30:15;;;;;;;5.45;5.00;;;16.10;68.40;;;;;;5065694;28;20932;-69
2022/10/04 09:33:02;;;;;;;5.63;5.13;;;16.00;68.90;;;;;;5065116;28;20428;-69
2022/10/04 09:35:51;;;;;;;5.63;5.13;;;16.10;68.90;;;;;;5057873;28;20431;-68
2022/10/04 09:38:53;;;;;;;5.80;5.30;;;16.30;67.10;;;;;;5067127;28;20422;-68
2022/10/04 09:41:46;;;;;;;5.13;4.63;;;16.50;66.50;;;;;;5062214;28;20430;-69
2022/10/04 09:44:39;;;;;;;5.00;4.30;;;16.90;65.80;;;;;;5058539;28;20863;-70
2022/10/04 09:47:21;;;;;;;5.55;4.85;;;17.50;64.10;;;;;;5066704;28;20996;-69
2022/10/04 09:50:30;;;;;;;4.70;4.30;;;17.90;62.10;;;;;;5046355;28;20759;-69
2022/10/04 09:53:19;;;;;;;5.15;4.60;;;18.30;61.40;;;;;;5046393;28;20423;-69
2022/10/04 09:56:08;;;;;;;5.03;4.18;;;18.40;59.30;;;;;;5066283;28;20469;-69
2022/10/04 09:58:53;;;;;;;5.83;4.27;;;18.40;59.20;;;;;;5052911;28;20504;-69
2022/10/04 10:01:30;;;;;;;4.77;4.27;;;18.30;59.40;;;;;;5050500;28;20628;-69
2022/10/04 10:04:27;;;;;;;4.40;3.97;;;18.30;60.00;;;;;;5056507;28;20435;-70
2022/10/04 10:07:14;;;;;;;4.13;3.72;;;18.50;60.20;;;;;;5065692;28;20415;-69
2022/10/04 10:15:57;;;;;;;5.53;3.60;;;19.30;56.70;;;;;;5062046;28;20453;-69
2022/10/04 10:18:34;;;;;;;4.50;3.80;;;19.40;56.50;;;;;;5065752;28;20462;-69
2022/10/04 10:21:21;;;;;;;4.50;4.00;;;19.60;56.10;;;;;;5063140;28;20531;-69
2022/10/04 10:24:32;;;;;;;5.33;3.30;;;19.70;54.90;;;;;;5052707;28;20906;-69
2022/10/04 10:27:38;;;;;;;4.80;3.47;;;19.70;54.50;;;;;;5063132;28;20434;-69
2022/10/04 10:30:25;;;;;;;3.70;3.40;;;19.80;54.10;;;;;;5064706;28;20439;-69
2022/10/04 10:33:37;;;;;;;4.10;3.70;;;20.20;54.60;;;;;;5056110;28;20940;-69
2022/10/04 10:36:40;;;;;;;4.27;3.60;;;20.30;52.20;;;;;;5065565;28;20414;-69
2022/10/04 10:39:35;;;;;;;4.23;3.40;;;19.90;52.60;;;;;;5065321;28;20423;-69
2022/10/04 10:42:26;;;;;;;3.88;3.28;;;19.90;53.30;;;;;;5059446;28;21064;-69
2022/10/04 10:45:18;;;;;;;5.18;3.58;;;19.90;53.10;;;;;;5064714;28;20985;-70
2022/10/04 10:47:52;;;;;;;3.60;3.30;;;20.00;52.70;;;;;;5064079;28;20425;-69
2022/10/04 10:50:58;;;;;;;4.15;3.30;;;20.00;53.00;;;;;;5064762;28;20431;-69
2022/10/04 10:54:09;;;;;;;4.25;3.42;;;20.10;52.40;;;;;;5057764;28;20407;-69
2022/10/04 10:56:45;;;;;;;7.28;3.70;;;20.10;52.90;;;;;;5056521;28;20433;-69
2022/10/04 10:59:55;;;;;;;4.00;3.17;;;20.30;53.10;;;;;;5052526;28;20447;-70
2022/10/04 11:02:54;;;;;;;5.05;3.40;;;20.70;51.40;;;;;;5057399;28;20438;-69
2022/10/04 11:05:44;;;;;;;4.20;2.90;;;20.80;50.60;;;;;;5064665;28;20423;-69
2022/10/04 11:08:55;;;;;;;4.50;3.10;;;20.90;50.50;;;;;;5061500;28;20434;-69
2022/10/04 11:11:41;;;;;;;5.72;3.20;;;21.10;50.10;;;;;;5056818;28;20503;-69
2022/10/04 11:14:32;;;;;;;4.35;2.90;;;21.10;49.20;;;;;;5056315;28;20416;-69
2022/10/04 11:17:26;;;;;;;3.15;2.60;;;20.90;49.70;;;;;;5064181;28;20404;-69
2022/10/04 11:20:41;;;;;;;2.93;2.70;;;20.70;49.80;;;;;;5054906;28;20444;-69
2022/10/04 11:23:45;;;;;;;4.83;2.80;;;20.50;50.00;;;;;;5000157;28;20424;-71
2022/10/04 11:26:49;;;;;;;5.53;3.33;;;20.50;50.30;;;;;;5063199;28;20977;-71
2022/10/04 11:29:41;;;;;;;2.58;2.38;;;20.80;49.30;;;;;;5056421;28;20435;-71
2022/10/04 11:32:53;;;;;;;3.40;2.70;;;21.20;48.30;;;;;;5061735;28;20477;-72
2022/10/04 11:35:53;;;;;;;3.72;2.58;;;21.30;47.70;;;;;;5003176;28;20852;-71
2022/10/04 11:38:32;;;;;;;5.70;2.90;;;21.50;47.60;;;;;;5057107;28;20539;-71
2022/10/04 11:41:17;;;;;;;3.90;2.40;;;21.50;46.80;;;;;;5064493;28;20420;-71
2022/10/04 11:44:14;;;;;;;3.88;2.88;;;21.60;47.40;;;;;;5053545;28;20457;-71
2022/10/04 11:46:47;;;;;;;4.20;2.40;;;21.70;47.00;;;;;;5060148;28;20423;-71
2022/10/04 11:49:34;;;;;;;2.90;2.40;;;21.80;47.50;;;;;;5064285;28;20865;-71
2022/10/04 11:52:35;;;;;;;3.00;2.60;;;22.20;45.80;;;;;;5061742;28;20580;-71
2022/10/04 11:55:56;;;;;;;3.38;2.60;;;22.30;46.00;;;;;;5048867;28;20502;-71
2022/10/04 11:58:35;;;;;;;3.40;2.30;;;22.40;45.30;;;;;;5058254;28;20928;-71
2022/10/04 12:01:37;;;;;;;4.45;2.85;;;22.70;44.50;;;;;;5066585;28;20877;-71
2022/10/04 12:04:30;;;;;;;3.17;2.47;;;22.90;43.70;;;;;;5067047;28;20419;-71
2022/10/04 12:07:12;;;;;;;4.30;2.80;;;23.00;44.40;;;;;;5068267;28;20415;-71
2022/10/04 12:09:43;;;;;;;3.35;2.65;;;22.80;44.60;;;;;;5059802;28;20437;-70
2022/10/04 12:12:37;;;;;;;3.58;2.50;;;22.70;45.20;;;;;;5063090;28;20425;-71
2022/10/04 12:15:37;;;;;;;4.03;2.40;;;22.80;45.90;;;;;;5063183;28;20424;-71
2022/10/04 12:18:35;;;;;;;3.23;2.70;;;22.80;44.50;;;;;;5063763;28;20826;-70
2022/10/04 12:21:49;;;;;;;4.25;2.83;;;23.10;44.20;;;;;;5068253;28;20726;-71
2022/10/04 12:24:46;;;;;;;4.90;3.10;;;23.20;43.90;;;;;;4997849;28;20480;-72
2022/10/04 12:27:43;;;;;;;4.22;2.80;;;23.20;44.10;;;;;;5004072;28;20444;-70
2022/10/04 12:30:22;;;;;;;3.40;2.40;;;23.10;44.50;;;;;;5046452;28;20792;-70
2022/10/04 12:33:11;;;;;;;2.97;2.30;;;22.90;44.00;;;;;;5064822;28;20522;-70
2022/10/04 12:36:01;;;;;;;3.40;2.50;;;22.90;44.10;;;;;;5067870;28;20745;-70
2022/10/04 12:38:58;;;;;;;2.92;2.20;;;23.10;43.60;;;;;;5059703;28;20515;-70
2022/10/04 12:41:34;;;;;;;2.50;2.30;;;23.20;43.50;;;;;;5061269;28;20420;-69
2022/10/04 12:44:18;;;;;;;3.92;2.20;;;23.30;43.60;;;;;;5058301;28;20425;-69
2022/10/04 12:46:57;;;;;;;3.00;2.60;;;23.50;43.50;;;;;;5067814;28;20420;-71
2022/10/04 12:49:36;;;;;;;3.90;2.23;;;24.00;43.70;;;;;;5057564;28;20597;-68
2022/10/04 12:52:10;;;;;;;2.67;2.47;;;24.60;41.20;;;;;;5068198;28;20446;-70
2022/10/04 12:54:41;;;;;;;3.10;2.50;;;24.60;41.00;;;;;;5067699;28;20890;-71
2022/10/04 12:57:36;;;;;;;3.22;2.30;;;24.70;40.60;;;;;;5067556;28;20423;-71
2022/10/04 13:00:14;;;;;;;2.67;2.30;;;24.80;40.40;;;;;;5065402;28;20431;-71
2022/10/04 13:02:57;;;;;;;3.63;2.20;;;24.60;40.80;;;;;;5066846;28;20533;-71
2022/10/04 13:05:29;;;;;;;2.38;2.17;;;25.00;40.60;;;;;;5066996;28;20419;-71
2022/10/04 13:08:22;;;;;;;3.07;2.40;;;25.20;40.60;;;;;;5068786;28;20469;-72
2022/10/04 13:11:12;;;;;;;3.90;2.60;;;24.80;40.70;;;;;;5064535;28;20434;-71
2022/10/04 13:14:27;;;;;;;3.85;2.17;;;24.80;40.20;;;;;;5055690;28;20508;-71
2022/10/04 13:16:59;;;;;;;2.42;2.20;;;24.60;40.90;;;;;;5064962;28;20415;-71
2022/10/04 13:19:34;;;;;;;2.35;2.15;;;24.60;41.10;;;;;;5058045;28;20958;-70
2022/10/04 13:22:20;;;;;;;3.53;2.58;;;24.50;40.40;;;;;;5067262;28;20412;-70
2022/10/04 13:24:59;;;;;;;3.17;2.20;;;24.30;41.60;;;;;;5066638;28;20490;-70
2022/10/04 13:27:37;;;;;;;3.20;2.40;;;24.30;41.40;;;;;;5064909;28;20427;-71
2022/10/04 13:30:15;;;;;;;3.20;2.40;;;24.20;41.70;;;;;;5058191;28;20597;-70
2022/10/04 13:32:49;;;;;;;3.33;2.50;;;24.40;42.10;;;;;;5065897;28;20526;-71
2022/10/04 13:35:23;;;;;;;3.50;2.50;;;24.40;41.80;;;;;;5066428;28;20407;-70
2022/10/04 13:38:14;;;;;;;4.63;2.60;;;24.20;42.00;;;;;;5065806;28;20952;-71
2022/10/04 13:40:59;;;;;;;4.22;2.33;;;24.20;42.00;;;;;;5066182;28;20420;-71
2022/10/04 13:43:52;;;;;;;3.40;2.47;;;24.40;42.60;;;;;;5059936;28;20448;-71
2022/10/04 13:46:31;;;;;;;3.80;2.60;;;24.40;42.20;;;;;;5058942;28;20463;-71
2022/10/04 13:49:11;;;;;;;3.17;2.20;;;24.60;42.70;;;;;;5055706;28;20518;-71
2022/10/04 13:56:35;;;;;;;2.83;2.20;;;24.80;41.20;;;;;;5066373;28;20422;-71
2022/10/04 13:57:41;;;;;;;2.38;2.15;;;24.70;41.50;;;;;;5065078;28;20512;-71
2022/10/04 14:00:13;;;;;;;4.05;2.47;;;24.40;41.70;;;;;;5057970;28;20468;-70
2022/10/04 14:03:03;;;;;;;2.75;2.20;;;24.40;41.40;;;;;;5066672;28;20499;-71
2022/10/04 14:06:18;;;;;;;3.03;2.28;;;24.40;41.50;;;;;;5051296;28;20439;-70
2022/10/04 14:09:03;;;;;;;2.50;2.10;;;24.40;42.10;;;;;;4992628;28;20413;-70
2022/10/04 14:11:54;;;;;;;4.55;2.55;;;24.20;42.30;;;;;;5059202;28;20428;-71
2022/10/04 14:14:52;;;;;;;2.58;2.10;;;24.10;42.70;;;;;;5055961;28;20535;-71